createdAt,value
2022-09-17T00:02:30.340Z,9.40
2022-09-17T00:07:35.002Z,9.30
2022-09-17T00:12:38.200Z,9.30
2022-09-17T00:17:41.672Z,9.20
2022-09-17T00:22:46.242Z,9.20
2022-09-17T00:27:49.463Z,9.20
2022-09-17T00:32:53.241Z,9.10
2022-09-17T00:37:57.864Z,9.10
2022-09-17T00:43:01.485Z,9.20
2022-09-17T00:48:07.130Z,9.30
2022-09-17T00:53:15.553Z,9.30
2022-09-17T00:58:22.758Z,9.40
2022-09-17T01:03:26.042Z,9.40
2022-09-17T01:08:40.230Z,9.40
2022-09-17T01:13:53.495Z,9.30
2022-09-17T01:19:04.606Z,9.30
2022-09-17T01:24:29.886Z,9.30
2022-09-17T01:29:53.652Z,9.20
2022-09-17T01:35:02.411Z,9.20
2022-09-17T01:40:09.687Z,9.20
2022-09-17T01:45:18.783Z,9.30
2022-09-17T01:50:27.485Z,9.20
2022-09-17T01:55:36.774Z,9.20
2022-09-17T02:00:43.611Z,9.20
2022-09-17T02:05:53.414Z,9.20
2022-09-17T02:11:00.723Z,9.20
2022-09-17T02:16:09.142Z,9.10
2022-09-17T02:21:18.406Z,9.00
2022-09-17T02:26:23.215Z,11.20
2022-09-17T02:31:26.542Z,9.20
2022-09-17T02:36:32.197Z,9.30
2022-09-17T02:41:47.970Z,9.40
2022-09-17T02:47:06.410Z,9.70
2022-09-17T02:52:18.949Z,9.30
2022-09-17T02:57:27.405Z,9.20
2022-09-17T03:02:34.303Z,9.20
2022-09-17T03:07:39.852Z,9.20
2022-09-17T03:12:43.359Z,8.90
2022-09-17T03:17:49.014Z,9.20
2022-09-17T03:22:57.239Z,9.40
2022-09-17T03:28:00.482Z,9.40
2022-09-17T03:33:03.731Z,9.50
2022-09-17T03:38:08.299Z,9.60
2022-09-17T03:43:11.854Z,9.50
2022-09-17T03:48:15.089Z,9.50
2022-09-17T03:53:19.706Z,9.50
2022-09-17T03:58:23.889Z,9.40
2022-09-17T04:03:27.649Z,9.90
2022-09-17T04:08:32.716Z,9.40
2022-09-17T04:13:35.916Z,9.40
2022-09-17T04:18:39.411Z,9.50
2022-09-17T04:23:43.964Z,9.40
2022-09-17T04:28:47.182Z,9.50
2022-09-17T04:33:50.364Z,9.50
2022-09-17T04:38:54.949Z,9.50
2022-09-17T04:43:58.132Z,9.50
2022-09-17T04:49:01.405Z,9.40
2022-09-17T04:54:06.363Z,9.40
2022-09-17T04:59:09.640Z,8.10
2022-09-17T05:04:13.124Z,9.40
2022-09-17T05:09:17.818Z,9.40
2022-09-17T05:14:21.048Z,9.40
2022-09-17T05:19:24.251Z,9.40
2022-09-17T05:24:28.936Z,9.30
2022-09-17T05:29:32.104Z,9.40
2022-09-17T05:34:35.731Z,9.40
2022-09-17T05:39:40.304Z,9.40
2022-09-17T05:44:43.561Z,9.60
2022-09-17T05:49:46.768Z,9.20
2022-09-17T05:54:51.348Z,9.20
2022-09-17T05:59:54.536Z,9.40
2022-09-17T06:05:00.865Z,9.20
2022-09-17T06:10:06.525Z,9.20
2022-09-17T06:15:10.318Z,9.20
2022-09-17T06:20:13.492Z,9.10
2022-09-17T06:25:18.181Z,9.20
2022-09-17T06:30:21.396Z,9.10
2022-09-17T06:35:24.642Z,9.10
2022-09-17T06:40:29.666Z,9.20
2022-09-17T06:45:33.149Z,9.10
2022-09-17T06:50:40.610Z,9.10
2022-09-17T06:55:47.256Z,9.10
2022-09-17T07:00:50.486Z,9.10
2022-09-17T07:05:56.039Z,9.10
2022-09-17T07:11:00.726Z,9.10
2022-09-17T07:16:06.463Z,8.90
2022-09-17T07:21:11.343Z,9.10
2022-09-17T07:26:17.385Z,9.00
2022-09-17T07:31:20.612Z,9.10
2022-09-17T07:36:23.919Z,9.10
2022-09-17T07:41:28.495Z,9.40
2022-09-17T07:46:31.792Z,9.30
2022-09-17T07:51:35.007Z,9.50
2022-09-17T07:56:39.593Z,9.80
2022-09-17T08:01:42.850Z,9.80
2022-09-17T08:06:48.453Z,10.00
2022-09-17T08:11:56.850Z,10.20
2022-09-17T08:17:00.264Z,10.30
2022-09-17T08:22:04.337Z,10.50
2022-09-17T08:27:09.184Z,10.20
2022-09-17T08:32:12.372Z,10.20
2022-09-17T08:37:15.608Z,10.40
2022-09-17T08:42:25.691Z,10.30
2022-09-17T08:47:33.509Z,10.00
2022-09-17T08:53:13.608Z,9.90
2022-09-17T08:58:41.691Z,9.70
2022-09-17T09:04:03.617Z,9.70
2022-09-17T09:09:12.241Z,9.70
2022-09-17T09:14:22.698Z,9.70
2022-09-17T09:19:28.212Z,9.70
2022-09-17T09:24:42.003Z,9.70
2022-09-17T09:30:02.069Z,9.40
2022-09-17T09:35:17.660Z,9.50
2022-09-17T09:40:33.013Z,9.10
2022-09-17T09:46:04.141Z,9.30
2022-09-17T09:51:19.268Z,9.20
2022-09-17T09:56:49.377Z,9.30
2022-09-17T10:01:54.480Z,9.30
2022-09-17T10:07:04.160Z,9.40
2022-09-17T10:12:17.680Z,9.40
2022-09-17T10:17:24.509Z,9.60
2022-09-17T10:22:31.670Z,9.70
2022-09-17T10:27:36.991Z,9.50
2022-09-17T10:32:41.616Z,9.70
2022-09-17T10:37:46.534Z,7.40
2022-09-17T10:42:50.801Z,9.80
2022-09-17T10:47:56.892Z,9.90
2022-09-17T10:53:03.427Z,10.40
2022-09-17T10:58:22.198Z,10.10
2022-09-17T11:04:01.803Z,9.90
2022-09-17T11:09:15.619Z,9.80
2022-09-17T11:14:36.973Z,10.30
2022-09-17T11:19:53.983Z,10.70
2022-09-17T11:25:25.410Z,12.00
2022-09-17T11:30:34.338Z,12.50
2022-09-17T11:35:42.247Z,13.20
2022-09-17T11:40:49.317Z,12.40
2022-09-17T11:46:00.159Z,12.10
2022-09-17T11:51:14.143Z,11.90
2022-09-17T11:56:24.437Z,12.90
2022-09-17T12:01:37.080Z,13.70
2022-09-17T12:06:48.238Z,15.00
2022-09-17T12:12:00.468Z,13.60
2022-09-17T12:17:05.627Z,13.70
2022-09-17T12:22:13.133Z,12.80
2022-09-17T12:27:25.395Z,12.70
2022-09-17T12:32:46.694Z,13.30
2022-09-17T12:38:01.822Z,14.70
2022-09-17T12:43:17.341Z,15.20
2022-09-17T12:49:03.389Z,15.40
2022-09-17T12:54:17.185Z,14.30
2022-09-17T12:59:20.979Z,15.40
2022-09-17T13:05:00.363Z,15.80
2022-09-17T13:10:36.707Z,17.20
2022-09-17T13:15:56.863Z,17.60
2022-09-17T13:21:06.606Z,16.30
2022-09-17T13:26:14.908Z,16.90
2022-09-17T13:31:23.612Z,16.40
2022-09-17T13:36:55.249Z,15.60
2022-09-17T13:42:06.700Z,16.70
2022-09-17T13:47:20.385Z,15.10
2022-09-17T13:52:34.278Z,18.80
2022-09-17T13:57:52.078Z,13.90
2022-09-17T14:02:55.450Z,12.40
2022-09-17T14:08:27.927Z,14.70
2022-09-17T14:13:44.778Z,15.70
2022-09-17T14:19:00.054Z,16.50
2022-09-17T14:24:09.064Z,16.90
2022-09-17T14:29:26.000Z,17.30
2022-09-17T14:34:31.503Z,18.60
2022-09-17T14:39:42.243Z,15.10
2022-09-17T14:45:00.039Z,14.00
2022-09-17T14:50:22.066Z,13.50
2022-09-17T14:55:26.805Z,13.40
2022-09-17T15:00:35.474Z,13.30
2022-09-17T15:05:41.003Z,13.60
2022-09-17T15:10:53.505Z,14.40
2022-09-17T15:16:04.941Z,13.50
2022-09-17T15:21:24.303Z,13.40
2022-09-17T15:26:33.217Z,12.80
2022-09-17T15:31:37.911Z,11.70
2022-09-17T15:36:41.305Z,11.00
2022-09-17T15:41:44.579Z,9.90
2022-09-17T15:46:49.380Z,10.10
2022-09-17T15:51:53.129Z,11.30
2022-09-17T15:56:59.909Z,12.00
2022-09-17T16:02:04.738Z,13.30
2022-09-17T16:07:30.741Z,11.80
2022-09-17T16:12:34.360Z,10.60
2022-09-17T16:17:46.144Z,10.40
2022-09-17T16:22:49.606Z,10.20
2022-09-17T16:27:55.702Z,10.10
2022-09-17T16:33:03.593Z,10.20
2022-09-17T16:38:07.221Z,10.20
2022-09-17T16:43:11.096Z,9.90
2022-09-17T16:48:15.677Z,10.20
2022-09-17T16:53:18.889Z,10.30
2022-09-17T16:58:22.120Z,10.50
2022-09-17T17:03:27.081Z,10.30
2022-09-17T17:08:32.128Z,10.00
2022-09-17T17:13:35.746Z,9.70
2022-09-17T17:18:42.895Z,9.60
2022-09-17T17:23:47.928Z,9.50
2022-09-17T17:28:51.127Z,9.60
2022-09-17T17:33:55.785Z,9.50
2022-09-17T17:38:59.769Z,9.70
2022-09-17T17:44:03.331Z,9.70
2022-09-17T17:49:08.863Z,9.70
2022-09-17T17:54:12.295Z,9.70
2022-09-17T17:59:15.710Z,9.70
2022-09-17T18:04:20.441Z,9.60
2022-09-17T18:09:23.638Z,9.70
2022-09-17T18:14:27.529Z,9.70
2022-09-17T18:19:32.227Z,10.90
2022-09-17T18:24:35.449Z,9.70
2022-09-17T18:29:39.283Z,9.70
2022-09-17T18:34:44.157Z,9.70
2022-09-17T18:40:04.484Z,9.80
2022-09-17T18:45:09.032Z,9.90
2022-09-17T18:50:14.392Z,10.00
2022-09-17T18:55:17.947Z,10.00
2022-09-17T19:00:22.072Z,9.90
2022-09-17T19:05:27.119Z,10.10
2022-09-17T19:10:32.226Z,9.90
2022-09-17T19:15:36.008Z,9.80
2022-09-17T19:20:40.998Z,9.70
2022-09-17T19:25:44.261Z,9.50
2022-09-17T19:30:48.281Z,9.40
2022-09-17T19:35:52.853Z,9.20
2022-09-17T19:41:00.507Z,9.20
2022-09-17T19:46:05.736Z,8.70
2022-09-17T19:51:10.377Z,8.90
2022-09-17T19:56:14.912Z,8.80
2022-09-17T20:01:18.742Z,8.60
2022-09-17T20:06:24.051Z,8.40
2022-09-17T20:11:28.198Z,8.40
2022-09-17T20:16:31.686Z,8.40
2022-09-17T20:21:36.268Z,8.50
2022-09-17T20:26:39.565Z,8.50
2022-09-17T20:31:43.188Z,8.60
2022-09-17T20:36:47.793Z,8.60
2022-09-17T20:41:51.032Z,8.60
2022-09-17T20:46:54.785Z,8.50
2022-09-17T20:51:59.572Z,8.40
2022-09-17T20:57:02.761Z,8.40
2022-09-17T21:02:06.104Z,8.40
2022-09-17T21:07:10.679Z,8.40
2022-09-17T21:12:13.920Z,8.30
2022-09-17T21:17:17.099Z,8.20
2022-09-17T21:22:21.690Z,8.60
2022-09-17T21:27:24.981Z,8.20
2022-09-17T21:32:29.078Z,8.30
2022-09-17T21:37:33.733Z,8.30
2022-09-17T21:42:38.836Z,8.60
2022-09-17T21:47:42.040Z,8.60
2022-09-17T21:52:46.636Z,8.70
2022-09-17T21:57:49.815Z,8.70
2022-09-17T22:02:53.101Z,8.70
2022-09-17T22:07:57.751Z,8.70
2022-09-17T22:13:00.975Z,8.60
2022-09-17T22:18:04.544Z,8.50
2022-09-17T22:23:09.403Z,5.00
2022-09-17T22:28:21.174Z,8.30
2022-09-17T22:33:26.809Z,8.60
2022-09-17T22:38:31.368Z,8.30
2022-09-17T22:43:34.960Z,8.30
2022-09-17T22:48:38.279Z,8.20
2022-09-17T22:53:43.459Z,8.20
2022-09-17T22:58:47.493Z,8.20
2022-09-17T23:03:53.423Z,8.10
2022-09-17T23:08:58.572Z,8.10
2022-09-17T23:14:06.422Z,8.10
2022-09-17T23:19:09.995Z,8.20
2022-09-17T23:24:19.209Z,8.30
2022-09-17T23:29:22.511Z,8.40
2022-09-17T23:34:25.808Z,8.40
2022-09-17T23:39:31.124Z,8.30
2022-09-17T23:44:34.496Z,8.30
2022-09-17T23:49:37.839Z,8.30
2022-09-17T23:54:42.401Z,8.30
2022-09-17T23:59:45.617Z,8.30
